sensor_id;sensor_type;location;lat;lon;timestamp;pressure;altitude;pressure_sealevel;temperature;humidity
10518;BME280;5307;42.548;22.968;2023-08-01T00:01:50;93561.47;;;18.06;88.25
10518;BME280;5307;42.548;22.968;2023-08-01T00:04:17;93559.69;;;17.80;89.56
10518;BME280;5307;42.548;22.968;2023-08-01T00:06:43;93557.69;;;17.81;90.28
10518;BME280;5307;42.548;22.968;2023-08-01T00:09:11;93558.19;;;17.79;90.79
10518;BME280;5307;42.548;22.968;2023-08-01T00:11:38;93557.94;;;18.00;90.47
10518;BME280;5307;42.548;22.968;2023-08-01T00:14:05;93550.41;;;18.06;90.49
10518;BME280;5307;42.548;22.968;2023-08-01T00:16:32;93552.41;;;18.17;90.21
10518;BME280;5307;42.548;22.968;2023-08-01T00:19:00;93553.41;;;18.25;89.60
10518;BME280;5307;42.548;22.968;2023-08-01T00:21:27;93558.94;;;18.19;89.43
10518;BME280;5307;42.548;22.968;2023-08-01T00:23:56;93547.38;;;18.26;88.95
10518;BME280;5307;42.548;22.968;2023-08-01T00:26:24;93555.38;;;18.47;88.25
10518;BME280;5307;42.548;22.968;2023-08-01T00:28:51;93560.44;;;18.31;88.60
10518;BME280;5307;42.548;22.968;2023-08-01T00:31:17;93557.19;;;18.33;88.46
10518;BME280;5307;42.548;22.968;2023-08-01T00:33:44;93551.13;;;18.29;88.14
10518;BME280;5307;42.548;22.968;2023-08-01T00:36:11;93549.88;;;18.24;88.37
10518;BME280;5307;42.548;22.968;2023-08-01T00:38:38;93553.13;;;18.28;88.53
10518;BME280;5307;42.548;22.968;2023-08-01T00:41:04;93558.41;;;18.26;88.86
10518;BME280;5307;42.548;22.968;2023-08-01T00:43:33;93551.41;;;18.08;89.87
10518;BME280;5307;42.548;22.968;2023-08-01T00:46:00;93542.13;;;18.17;89.34
10518;BME280;5307;42.548;22.968;2023-08-01T00:48:29;93544.59;;;18.37;89.74
10518;BME280;5307;42.548;22.968;2023-08-01T00:50:57;93543.38;;;18.16;89.47
10518;BME280;5307;42.548;22.968;2023-08-01T00:53:25;93548.13;;;18.16;89.41
10518;BME280;5307;42.548;22.968;2023-08-01T00:55:52;93549.66;;;18.05;90.37
10518;BME280;5307;42.548;22.968;2023-08-01T00:58:20;93546.38;;;17.96;91.56
10518;BME280;5307;42.548;22.968;2023-08-01T01:00:48;93545.38;;;17.82;91.97
10518;BME280;5307;42.548;22.968;2023-08-01T01:03:15;93538.34;;;17.75;92.00
10518;BME280;5307;42.548;22.968;2023-08-01T01:05:48;93540.56;;;17.66;92.40
10518;BME280;5307;42.548;22.968;2023-08-01T01:08:16;93533.81;;;17.95;92.12
10518;BME280;5307;42.548;22.968;2023-08-01T01:10:43;93537.59;;;17.75;91.58
10518;BME280;5307;42.548;22.968;2023-08-01T01:13:09;93537.81;;;17.60;93.12
10518;BME280;5307;42.548;22.968;2023-08-01T01:15:36;93530.53;;;17.63;93.48
10518;BME280;5307;42.548;22.968;2023-08-01T01:18:04;93532.00;;;17.52;93.79
10518;BME280;5307;42.548;22.968;2023-08-01T01:20:34;93528.75;;;17.54;93.43
10518;BME280;5307;42.548;22.968;2023-08-01T01:23:03;93522.72;;;17.33;94.25
10518;BME280;5307;42.548;22.968;2023-08-01T01:25:31;93515.94;;;17.57;93.88
10518;BME280;5307;42.548;22.968;2023-08-01T01:27:59;93521.72;;;17.47;93.25
10518;BME280;5307;42.548;22.968;2023-08-01T01:30:28;93521.94;;;17.21;94.18
10518;BME280;5307;42.548;22.968;2023-08-01T01:32:55;93526.94;;;17.17;94.02
10518;BME280;5307;42.548;22.968;2023-08-01T01:35:22;93526.19;;;17.23;94.64
10518;BME280;5307;42.548;22.968;2023-08-01T01:37:51;93522.44;;;17.26;95.17
10518;BME280;5307;42.548;22.968;2023-08-01T01:40:18;93532.22;;;17.21;94.80
10518;BME280;5307;42.548;22.968;2023-08-01T01:42:45;93527.13;;;16.97;94.36
10518;BME280;5307;42.548;22.968;2023-08-01T01:45:13;93532.19;;;17.10;94.31
10518;BME280;5307;42.548;22.968;2023-08-01T01:47:40;93536.69;;;17.13;95.12
10518;BME280;5307;42.548;22.968;2023-08-01T01:50:08;93531.69;;;17.06;96.60
10518;BME280;5307;42.548;22.968;2023-08-01T01:52:34;93534.69;;;17.13;96.41
10518;BME280;5307;42.548;22.968;2023-08-01T01:55:03;93530.63;;;16.92;95.99
10518;BME280;5307;42.548;22.968;2023-08-01T01:57:30;93535.09;;;16.78;95.52
10518;BME280;5307;42.548;22.968;2023-08-01T01:59:56;93542.91;;;16.97;95.00
10518;BME280;5307;42.548;22.968;2023-08-01T02:02:23;93544.44;;;16.98;95.09
10518;BME280;5307;42.548;22.968;2023-08-01T02:04:50;93540.41;;;16.99;94.98
10518;BME280;5307;42.548;22.968;2023-08-01T02:07:17;93538.09;;;16.86;94.69
10518;BME280;5307;42.548;22.968;2023-08-01T02:09:44;93544.34;;;16.75;95.59
10518;BME280;5307;42.548;22.968;2023-08-01T02:12:13;93542.06;;;16.74;95.41
10518;BME280;5307;42.548;22.968;2023-08-01T02:14:40;93536.03;;;16.70;95.29
10518;BME280;5307;42.548;22.968;2023-08-01T02:17:07;93535.59;;;16.77;95.59
10518;BME280;5307;42.548;22.968;2023-08-01T02:19:34;93538.69;;;16.53;95.85
10518;BME280;5307;42.548;22.968;2023-08-01T02:22:01;93528.94;;;16.57;95.81
10518;BME280;5307;42.548;22.968;2023-08-01T02:24:28;93541.81;;;16.72;95.00
10518;BME280;5307;42.548;22.968;2023-08-01T02:26:54;93542.31;;;16.70;95.13
10518;BME280;5307;42.548;22.968;2023-08-01T02:29:23;93544.47;;;16.60;95.26
10518;BME280;5307;42.548;22.968;2023-08-01T02:31:49;93544.44;;;16.49;95.54
10518;BME280;5307;42.548;22.968;2023-08-01T02:34:16;93536.63;;;16.42;96.68
10518;BME280;5307;42.548;22.968;2023-08-01T02:36:43;93540.69;;;16.52;96.81
10518;BME280;5307;42.548;22.968;2023-08-01T02:39:10;93543.38;;;16.41;96.71
10518;BME280;5307;42.548;22.968;2023-08-01T02:41:36;93545.94;;;16.50;96.25
10518;BME280;5307;42.548;22.968;2023-08-01T02:44:03;93540.88;;;16.38;96.20
10518;BME280;5307;42.548;22.968;2023-08-01T02:46:32;93546.53;;;16.23;97.24
10518;BME280;5307;42.548;22.968;2023-08-01T02:48:58;93544.53;;;16.23;96.68
10518;BME280;5307;42.548;22.968;2023-08-01T02:51:25;93539.59;;;16.33;96.34
10518;BME280;5307;42.548;22.968;2023-08-01T02:53:52;93539.31;;;16.31;95.45
10518;BME280;5307;42.548;22.968;2023-08-01T02:56:19;93547.78;;;16.22;95.76
10518;BME280;5307;42.548;22.968;2023-08-01T02:58:45;93539.97;;;16.15;95.77
10518;BME280;5307;42.548;22.968;2023-08-01T03:01:12;93550.31;;;16.25;95.31
10518;BME280;5307;42.548;22.968;2023-08-01T03:03:40;93552.94;;;16.09;95.92
10518;BME280;5307;42.548;22.968;2023-08-01T03:06:08;93556.75;;;16.17;96.47
10518;BME280;5307;42.548;22.968;2023-08-01T03:08:34;93563.06;;;16.23;95.76
10518;BME280;5307;42.548;22.968;2023-08-01T03:17:42;93557.72;;;16.14;94.72
10518;BME280;5307;42.548;22.968;2023-08-01T03:20:11;93552.53;;;15.90;96.44
10518;BME280;5307;42.548;22.968;2023-08-01T03:22:38;93563.84;;;15.92;96.42
10518;BME280;5307;42.548;22.968;2023-08-01T03:25:06;93552.19;;;16.08;96.28
10518;BME280;5307;42.548;22.968;2023-08-01T03:27:33;93551.63;;;15.98;95.55
10518;BME280;5307;42.548;22.968;2023-08-01T03:30:00;93559.34;;;15.94;95.81
10518;BME280;5307;42.548;22.968;2023-08-01T03:32:27;93552.75;;;16.18;94.68
10518;BME280;5307;42.548;22.968;2023-08-01T03:34:54;93559.16;;;16.03;93.36
10518;BME280;5307;42.548;22.968;2023-08-01T03:37:22;93545.13;;;16.01;93.98
10518;BME280;5307;42.548;22.968;2023-08-01T03:39:49;93556.84;;;15.91;94.31
10518;BME280;5307;42.548;22.968;2023-08-01T03:42:16;93569.41;;;16.03;94.21
10518;BME280;5307;42.548;22.968;2023-08-01T03:44:43;93560.81;;;16.21;93.95
10518;BME280;5307;42.548;22.968;2023-08-01T03:47:09;93560.22;;;16.12;93.29
10518;BME280;5307;42.548;22.968;2023-08-01T03:49:36;93564.59;;;15.92;94.05
10518;BME280;5307;42.548;22.968;2023-08-01T03:52:04;93561.72;;;16.13;95.42
10518;BME280;5307;42.548;22.968;2023-08-01T03:54:33;93567.75;;;16.17;94.30
10518;BME280;5307;42.548;22.968;2023-08-01T03:56:59;93561.56;;;16.22;94.06
10518;BME280;5307;42.548;22.968;2023-08-01T03:59:28;93569.31;;;16.23;94.12
10518;BME280;5307;42.548;22.968;2023-08-01T04:01:54;93568.53;;;16.17;94.67
10518;BME280;5307;42.548;22.968;2023-08-01T04:04:21;93570.72;;;16.08;94.93
10518;BME280;5307;42.548;22.968;2023-08-01T04:06:48;93568.38;;;16.32;94.67
10518;BME280;5307;42.548;22.968;2023-08-01T04:09:15;93567.84;;;16.28;94.41
10518;BME280;5307;42.548;22.968;2023-08-01T04:11:43;93567.16;;;16.39;93.82
10518;BME280;5307;42.548;22.968;2023-08-01T04:14:09;93569.66;;;16.37;93.82
10518;BME280;5307;42.548;22.968;2023-08-01T04:16:36;93564.00;;;16.51;93.20
10518;BME280;5307;42.548;22.968;2023-08-01T04:19:03;93562.75;;;16.52;93.03
10518;BME280;5307;42.548;22.968;2023-08-01T04:21:30;93562.09;;;16.69;92.95
10518;BME280;5307;42.548;22.968;2023-08-01T04:23:57;93568.50;;;16.54;93.50
10518;BME280;5307;42.548;22.968;2023-08-01T04:26:23;93560.97;;;16.49;94.54
10518;BME280;5307;42.548;22.968;2023-08-01T04:28:52;93558.53;;;16.62;94.73
10518;BME280;5307;42.548;22.968;2023-08-01T04:31:18;93551.41;;;16.87;93.38
10518;BME280;5307;42.548;22.968;2023-08-01T04:33:45;93560.16;;;16.86;93.44
10518;BME280;5307;42.548;22.968;2023-08-01T04:36:12;93554.44;;;16.95;94.40
10518;BME280;5307;42.548;22.968;2023-08-01T04:38:38;93544.41;;;16.92;93.84
10518;BME280;5307;42.548;22.968;2023-08-01T04:41:08;93558.25;;;17.03;94.40
10518;BME280;5307;42.548;22.968;2023-08-01T04:43:35;93562.72;;;16.95;93.63
10518;BME280;5307;42.548;22.968;2023-08-01T04:46:03;93564.03;;;17.05;93.06
10518;BME280;5307;42.548;22.968;2023-08-01T04:48:30;93561.50;;;16.59;94.53
10518;BME280;5307;42.548;22.968;2023-08-01T04:50:57;93565.75;;;16.49;96.32
10518;BME280;5307;42.548;22.968;2023-08-01T04:53:23;93572.34;;;16.62;97.02
10518;BME280;5307;42.548;22.968;2023-08-01T04:55:50;93562.25;;;17.02;95.65
10518;BME280;5307;42.548;22.968;2023-08-01T04:58:17;93567.19;;;16.87;95.45
10518;BME280;5307;42.548;22.968;2023-08-01T05:00:44;93561.69;;;16.87;95.34
10518;BME280;5307;42.548;22.968;2023-08-01T05:03:12;93567.38;;;17.37;96.36
10518;BME280;5307;42.548;22.968;2023-08-01T05:05:39;93569.63;;;17.44;95.54
10518;BME280;5307;42.548;22.968;2023-08-01T05:08:06;93562.91;;;17.62;95.34
10518;BME280;5307;42.548;22.968;2023-08-01T05:10:32;93569.47;;;17.70;93.11
10518;BME280;5307;42.548;22.968;2023-08-01T05:12:59;93565.38;;;17.43;91.81
10518;BME280;5307;42.548;22.968;2023-08-01T05:15:26;93563.09;;;17.31;94.57
10518;BME280;5307;42.548;22.968;2023-08-01T05:17:53;93562.63;;;17.43;94.83
10518;BME280;5307;42.548;22.968;2023-08-01T05:20:22;93564.47;;;17.74;92.37
10518;BME280;5307;42.548;22.968;2023-08-01T05:22:49;93558.06;;;17.29;92.02
10518;BME280;5307;42.548;22.968;2023-08-01T05:25:16;93552.38;;;17.66;91.21
10518;BME280;5307;42.548;22.968;2023-08-01T05:27:43;93554.91;;;17.81;91.35
10518;BME280;5307;42.548;22.968;2023-08-01T05:30:10;93564.19;;;17.72;90.72
10518;BME280;5307;42.548;22.968;2023-08-01T05:32:37;93556.44;;;18.10;89.45
10518;BME280;5307;42.548;22.968;2023-08-01T05:35:06;93559.44;;;18.34;87.92
10518;BME280;5307;42.548;22.968;2023-08-01T05:37:34;93558.88;;;18.53;85.18
10518;BME280;5307;42.548;22.968;2023-08-01T05:40:02;93559.38;;;18.62;85.79
10518;BME280;5307;42.548;22.968;2023-08-01T05:42:29;93566.22;;;19.25;84.50
10518;BME280;5307;42.548;22.968;2023-08-01T05:44:56;93570.84;;;19.52;82.07
10518;BME280;5307;42.548;22.968;2023-08-01T05:47:23;93570.31;;;19.65;79.65
10518;BME280;5307;42.548;22.968;2023-08-01T05:49:49;93559.22;;;19.71;77.71
10518;BME280;5307;42.548;22.968;2023-08-01T05:52:16;93561.47;;;19.72;76.24
10518;BME280;5307;42.548;22.968;2023-08-01T05:54:44;93575.97;;;19.84;75.46
10518;BME280;5307;42.548;22.968;2023-08-01T05:57:11;93568.13;;;20.24;73.41
10518;BME280;5307;42.548;22.968;2023-08-01T05:59:38;93561.25;;;20.60;73.68
10518;BME280;5307;42.548;22.968;2023-08-01T06:02:05;93554.38;;;20.37;72.20
10518;BME280;5307;42.548;22.968;2023-08-01T06:04:32;93551.06;;;20.93;71.42
10518;BME280;5307;42.548;22.968;2023-08-01T06:06:59;93550.19;;;21.47;68.10
10518;BME280;5307;42.548;22.968;2023-08-01T06:09:26;93549.53;;;21.41;67.81
10518;BME280;5307;42.548;22.968;2023-08-01T06:11:54;93557.16;;;20.91;68.20
10518;BME280;5307;42.548;22.968;2023-08-01T06:14:21;93556.34;;;20.72;68.28
10518;BME280;5307;42.548;22.968;2023-08-01T06:16:48;93558.31;;;21.20;67.77
10518;BME280;5307;42.548;22.968;2023-08-01T06:19:15;93558.22;;;21.69;66.54
10518;BME280;5307;42.548;22.968;2023-08-01T06:21:42;93553.91;;;22.06;64.63
10518;BME280;5307;42.548;22.968;2023-08-01T06:24:09;93548.69;;;21.46;66.51
10518;BME280;5307;42.548;22.968;2023-08-01T06:26:36;93543.56;;;21.50;65.55
10518;BME280;5307;42.548;22.968;2023-08-01T06:29:04;93541.47;;;21.37;63.76
10518;BME280;5307;42.548;22.968;2023-08-01T06:31:31;93541.00;;;21.52;63.39
10518;BME280;5307;42.548;22.968;2023-08-01T06:33:58;93533.66;;;22.24;62.29
10518;BME280;5307;42.548;22.968;2023-08-01T06:36:25;93536.72;;;23.05;61.09
10518;BME280;5307;42.548;22.968;2023-08-01T06:38:51;93531.16;;;22.92;57.65
10518;BME280;5307;42.548;22.968;2023-08-01T06:41:18;93537.72;;;21.72;58.90
10518;BME280;5307;42.548;22.968;2023-08-01T06:43:45;93531.56;;;21.42;58.58
10518;BME280;5307;42.548;22.968;2023-08-01T06:46:13;93531.19;;;22.34;58.62
10518;BME280;5307;42.548;22.968;2023-08-01T06:48:40;93526.22;;;22.13;56.80
10518;BME280;5307;42.548;22.968;2023-08-01T06:51:07;93530.09;;;22.82;57.60
10518;BME280;5307;42.548;22.968;2023-08-01T06:53:33;93530.03;;;23.48;54.95
10518;BME280;5307;42.548;22.968;2023-08-01T06:56:00;93521.53;;;22.93;56.01
10518;BME280;5307;42.548;22.968;2023-08-01T06:58:27;93526.94;;;24.07;53.89
10518;BME280;5307;42.548;22.968;2023-08-01T07:00:53;93523.13;;;23.15;55.38
10518;BME280;5307;42.548;22.968;2023-08-01T07:03:22;93528.56;;;23.81;53.58
10518;BME280;5307;42.548;22.968;2023-08-01T07:05:48;93526.63;;;23.42;52.64
10518;BME280;5307;42.548;22.968;2023-08-01T07:08:15;93523.31;;;23.78;53.94
10518;BME280;5307;42.548;22.968;2023-08-01T07:10:42;93514.47;;;23.53;53.03
10518;BME280;5307;42.548;22.968;2023-08-01T07:13:09;93519.06;;;24.18;52.14
10518;BME280;5307;42.548;22.968;2023-08-01T07:15:36;93513.94;;;23.88;52.95
10518;BME280;5307;42.548;22.968;2023-08-01T07:18:02;93510.16;;;23.99;53.06
10518;BME280;5307;42.548;22.968;2023-08-01T07:20:30;93516.25;;;24.18;52.62
10518;BME280;5307;42.548;22.968;2023-08-01T07:22:57;93510.00;;;24.46;51.09
10518;BME280;5307;42.548;22.968;2023-08-01T07:25:24;93508.66;;;23.98;52.28
10518;BME280;5307;42.548;22.968;2023-08-01T07:27:51;93507.56;;;24.43;52.86
10518;BME280;5307;42.548;22.968;2023-08-01T07:30:17;93507.69;;;24.58;52.57
10518;BME280;5307;42.548;22.968;2023-08-01T07:32:44;93506.28;;;24.72;50.67
10518;BME280;5307;42.548;22.968;2023-08-01T07:35:12;93507.22;;;24.46;52.28
10518;BME280;5307;42.548;22.968;2023-08-01T07:37:41;93504.47;;;25.47;49.41
10518;BME280;5307;42.548;22.968;2023-08-01T07:40:09;93508.41;;;25.52;51.18
10518;BME280;5307;42.548;22.968;2023-08-01T07:42:35;93502.50;;;25.63;51.40
10518;BME280;5307;42.548;22.968;2023-08-01T07:45:03;93503.53;;;25.96;51.53
10518;BME280;5307;42.548;22.968;2023-08-01T07:47:30;93504.03;;;25.71;51.67
10518;BME280;5307;42.548;22.968;2023-08-01T07:49:56;93497.78;;;25.50;48.74
10518;BME280;5307;42.548;22.968;2023-08-01T07:52:23;93503.16;;;25.92;51.21
10518;BME280;5307;42.548;22.968;2023-08-01T07:54:53;93489.31;;;25.86;49.14
10518;BME280;5307;42.548;22.968;2023-08-01T07:57:22;93490.13;;;26.71;48.49
10518;BME280;5307;42.548;22.968;2023-08-01T07:59:49;93490.03;;;25.71;50.09
10518;BME280;5307;42.548;22.968;2023-08-01T08:02:16;93488.25;;;25.45;49.77
10518;BME280;5307;42.548;22.968;2023-08-01T08:04:43;93490.66;;;25.93;49.22
10518;BME280;5307;42.548;22.968;2023-08-01T08:07:09;93482.50;;;25.59;49.22
10518;BME280;5307;42.548;22.968;2023-08-01T08:09:36;93479.09;;;25.45;48.75
10518;BME280;5307;42.548;22.968;2023-08-01T08:12:05;93476.13;;;25.43;48.00
10518;BME280;5307;42.548;22.968;2023-08-01T08:14:33;93474.75;;;25.72;49.81
10518;BME280;5307;42.548;22.968;2023-08-01T08:17:00;93466.22;;;26.70;46.20
10518;BME280;5307;42.548;22.968;2023-08-01T08:19:27;93482.63;;;25.97;47.51
10518;BME280;5307;42.548;22.968;2023-08-01T08:21:54;93481.19;;;26.49;49.01
10518;BME280;5307;42.548;22.968;2023-08-01T08:24:20;93471.16;;;27.25;46.45
10518;BME280;5307;42.548;22.968;2023-08-01T08:26:47;93470.53;;;26.40;48.11
10518;BME280;5307;42.548;22.968;2023-08-01T08:29:15;93468.63;;;26.81;46.32
10518;BME280;5307;42.548;22.968;2023-08-01T08:31:42;93468.44;;;26.02;45.92
10518;BME280;5307;42.548;22.968;2023-08-01T08:34:09;93459.00;;;27.22;45.71
10518;BME280;5307;42.548;22.968;2023-08-01T08:36:35;93463.38;;;26.85;45.75
10518;BME280;5307;42.548;22.968;2023-08-01T08:39:02;93467.66;;;27.09;46.71
10518;BME280;5307;42.548;22.968;2023-08-01T08:41:32;93459.25;;;27.09;44.74
10518;BME280;5307;42.548;22.968;2023-08-01T08:44:06;93450.88;;;26.86;44.77
10518;BME280;5307;42.548;22.968;2023-08-01T08:46:41;93449.13;;;27.13;46.29
10518;BME280;5307;42.548;22.968;2023-08-01T08:49:08;93452.53;;;27.44;44.63
10518;BME280;5307;42.548;22.968;2023-08-01T08:51:36;93450.22;;;27.66;46.47
10518;BME280;5307;42.548;22.968;2023-08-01T08:54:03;93444.75;;;27.75;44.82
10518;BME280;5307;42.548;22.968;2023-08-01T08:56:31;93438.28;;;28.65;42.96
10518;BME280;5307;42.548;22.968;2023-08-01T08:59:00;93441.00;;;28.05;45.21
10518;BME280;5307;42.548;22.968;2023-08-01T09:01:27;93436.69;;;27.39;43.10
10518;BME280;5307;42.548;22.968;2023-08-01T09:03:55;93442.59;;;27.11;42.80
10518;BME280;5307;42.548;22.968;2023-08-01T09:06:25;93439.25;;;26.97;44.20
10518;BME280;5307;42.548;22.968;2023-08-01T09:08:58;93429.81;;;27.98;43.66
10518;BME280;5307;42.548;22.968;2023-08-01T09:11:27;93427.44;;;28.44;41.94
10518;BME280;5307;42.548;22.968;2023-08-01T09:13:54;93434.91;;;27.59;43.54
10518;BME280;5307;42.548;22.968;2023-08-01T09:16:21;93429.31;;;27.59;42.52
10518;BME280;5307;42.548;22.968;2023-08-01T09:18:49;93427.78;;;27.58;41.63
10518;BME280;5307;42.548;22.968;2023-08-01T09:21:19;93430.72;;;28.33;42.09
10518;BME280;5307;42.548;22.968;2023-08-01T09:23:46;93419.69;;;28.27;39.64
10518;BME280;5307;42.548;22.968;2023-08-01T09:26:13;93427.41;;;28.19;40.37
10518;BME280;5307;42.548;22.968;2023-08-01T09:28:40;93423.44;;;27.72;40.79
10518;BME280;5307;42.548;22.968;2023-08-01T09:31:07;93418.47;;;28.13;40.64
10518;BME280;5307;42.548;22.968;2023-08-01T09:33:38;93419.03;;;28.79;38.75
10518;BME280;5307;42.548;22.968;2023-08-01T09:36:06;93406.78;;;28.24;36.92
10518;BME280;5307;42.548;22.968;2023-08-01T09:38:36;93417.78;;;27.80;36.73
10518;BME280;5307;42.548;22.968;2023-08-01T09:41:03;93419.59;;;27.85;37.80
10518;BME280;5307;42.548;22.968;2023-08-01T09:43:33;93416.22;;;28.12;39.22
10518;BME280;5307;42.548;22.968;2023-08-01T09:46:01;93409.22;;;28.03;41.16
10518;BME280;5307;42.548;22.968;2023-08-01T09:48:29;93399.88;;;28.43;36.96
10518;BME280;5307;42.548;22.968;2023-08-01T09:51:07;93402.25;;;28.29;38.38
10518;BME280;5307;42.548;22.968;2023-08-01T09:53:35;93393.78;;;28.54;37.29
10518;BME280;5307;42.548;22.968;2023-08-01T09:56:03;93388.53;;;28.58;41.18
10518;BME280;5307;42.548;22.968;2023-08-01T09:58:32;93397.06;;;27.75;41.13
10518;BME280;5307;42.548;22.968;2023-08-01T10:00:59;93388.00;;;28.69;41.02
10518;BME280;5307;42.548;22.968;2023-08-01T10:03:27;93397.38;;;27.79;40.39
10518;BME280;5307;42.548;22.968;2023-08-01T10:05:55;93389.06;;;27.64;42.22
10518;BME280;5307;42.548;22.968;2023-08-01T10:08:22;93380.25;;;28.60;41.62
10518;BME280;5307;42.548;22.968;2023-08-01T10:10:51;93374.53;;;28.08;40.30
10518;BME280;5307;42.548;22.968;2023-08-01T10:13:20;93374.44;;;28.41;39.04
10518;BME280;5307;42.548;22.968;2023-08-01T10:15:48;93378.69;;;28.24;40.51
10518;BME280;5307;42.548;22.968;2023-08-01T10:18:16;93360.94;;;27.97;38.69
10518;BME280;5307;42.548;22.968;2023-08-01T10:20:44;93360.91;;;28.64;38.58
10518;BME280;5307;42.548;22.968;2023-08-01T10:23:11;93347.97;;;29.30;40.52
10518;BME280;5307;42.548;22.968;2023-08-01T10:25:39;93351.97;;;29.37;39.97
10518;BME280;5307;42.548;22.968;2023-08-01T10:28:08;93358.59;;;28.53;37.79
10518;BME280;5307;42.548;22.968;2023-08-01T10:30:34;93358.53;;;28.95;38.45
10518;BME280;5307;42.548;22.968;2023-08-01T10:33:01;93338.59;;;28.31;37.55
10518;BME280;5307;42.548;22.968;2023-08-01T10:35:34;93347.19;;;28.33;36.56
10518;BME280;5307;42.548;22.968;2023-08-01T10:38:06;93331.41;;;28.38;36.61
10518;BME280;5307;42.548;22.968;2023-08-01T10:40:34;93334.63;;;28.09;37.69
10518;BME280;5307;42.548;22.968;2023-08-01T10:43:01;93334.47;;;28.67;36.47
10518;BME280;5307;42.548;22.968;2023-08-01T10:45:29;93329.56;;;29.46;37.14
10518;BME280;5307;42.548;22.968;2023-08-01T10:48:06;93318.91;;;28.66;33.29
10518;BME280;5307;42.548;22.968;2023-08-01T10:50:33;93316.28;;;28.51;36.91
10518;BME280;5307;42.548;22.968;2023-08-01T10:53:04;93302.56;;;28.89;34.27
10518;BME280;5307;42.548;22.968;2023-08-01T10:55:39;93300.91;;;29.13;36.55
10518;BME280;5307;42.548;22.968;2023-08-01T10:58:07;93294.00;;;29.24;36.48
10518;BME280;5307;42.548;22.968;2023-08-01T11:00:35;93290.91;;;29.47;37.23
10518;BME280;5307;42.548;22.968;2023-08-01T11:03:37;93290.91;;;29.47;36.90
10518;BME280;5307;42.548;22.968;2023-08-01T11:06:04;93294.59;;;28.95;36.07
10518;BME280;5307;42.548;22.968;2023-08-01T11:24:41;93274.97;;;28.44;36.85
10518;BME280;5307;42.548;22.968;2023-08-01T11:27:16;93284.94;;;28.20;36.70
10518;BME280;5307;42.548;22.968;2023-08-01T11:32:57;93270.31;;;28.90;34.98
10518;BME280;5307;42.548;22.968;2023-08-01T11:35:25;93276.25;;;28.77;35.34
10518;BME280;5307;42.548;22.968;2023-08-01T11:37:52;93268.56;;;28.26;35.79
10518;BME280;5307;42.548;22.968;2023-08-01T11:40:20;93267.69;;;28.41;35.59
10518;BME280;5307;42.548;22.968;2023-08-01T11:42:49;93260.41;;;28.03;35.75
10518;BME280;5307;42.548;22.968;2023-08-01T11:45:17;93264.78;;;28.65;37.28
10518;BME280;5307;42.548;22.968;2023-08-01T11:47:45;93265.47;;;28.39;34.61
10518;BME280;5307;42.548;22.968;2023-08-01T11:50:12;93263.56;;;28.42;35.56
10518;BME280;5307;42.548;22.968;2023-08-01T11:52:39;93250.63;;;28.90;38.52
10518;BME280;5307;42.548;22.968;2023-08-01T11:55:07;93256.88;;;28.98;34.74
10518;BME280;5307;42.548;22.968;2023-08-01T11:57:35;93250.69;;;28.38;34.03
10518;BME280;5307;42.548;22.968;2023-08-01T12:00:02;93245.47;;;28.52;34.68
10518;BME280;5307;42.548;22.968;2023-08-01T12:02:29;93239.28;;;28.81;36.33
10518;BME280;5307;42.548;22.968;2023-08-01T12:04:57;93231.13;;;28.75;34.18
10518;BME280;5307;42.548;22.968;2023-08-01T12:07:25;93235.63;;;28.61;33.93
10518;BME280;5307;42.548;22.968;2023-08-01T12:09:56;93232.50;;;28.39;35.13
10518;BME280;5307;42.548;22.968;2023-08-01T12:12:23;93229.03;;;28.93;36.19
10518;BME280;5307;42.548;22.968;2023-08-01T12:14:51;93218.03;;;28.60;34.29
10518;BME280;5307;42.548;22.968;2023-08-01T12:17:19;93224.56;;;28.46;33.59
10518;BME280;5307;42.548;22.968;2023-08-01T12:19:46;93207.00;;;28.72;39.07
10518;BME280;5307;42.548;22.968;2023-08-01T12:22:13;93217.31;;;28.87;35.52
10518;BME280;5307;42.548;22.968;2023-08-01T12:24:40;93219.31;;;29.04;36.26
10518;BME280;5307;42.548;22.968;2023-08-01T12:27:07;93214.06;;;28.90;35.49
10518;BME280;5307;42.548;22.968;2023-08-01T12:29:35;93204.22;;;28.55;34.65
10518;BME280;5307;42.548;22.968;2023-08-01T12:32:03;93208.06;;;28.77;37.28
10518;BME280;5307;42.548;22.968;2023-08-01T12:34:32;93200.44;;;28.87;35.35
10518;BME280;5307;42.548;22.968;2023-08-01T12:36:59;93196.13;;;29.13;36.08
10518;BME280;5307;42.548;22.968;2023-08-01T12:39:26;93201.59;;;29.11;35.57
10518;BME280;5307;42.548;22.968;2023-08-01T12:41:51;93204.34;;;28.74;35.44
10518;BME280;5307;42.548;22.968;2023-08-01T12:44:19;93199.06;;;29.05;36.37
10518;BME280;5307;42.548;22.968;2023-08-01T12:46:46;93199.09;;;29.15;36.82
10518;BME280;5307;42.548;22.968;2023-08-01T12:49:14;93192.69;;;28.78;35.97
10518;BME280;5307;42.548;22.968;2023-08-01T12:51:41;93187.69;;;29.13;37.30
10518;BME280;5307;42.548;22.968;2023-08-01T12:54:07;93175.69;;;29.12;35.47
10518;BME280;5307;42.548;22.968;2023-08-01T12:56:34;93182.31;;;28.80;34.77
10518;BME280;5307;42.548;22.968;2023-08-01T12:59:01;93175.59;;;28.66;35.35
10518;BME280;5307;42.548;22.968;2023-08-01T13:01:28;93167.28;;;28.58;34.04
10518;BME280;5307;42.548;22.968;2023-08-01T13:03:55;93163.09;;;28.50;34.05
10518;BME280;5307;42.548;22.968;2023-08-01T13:06:23;93168.63;;;28.23;34.95
10518;BME280;5307;42.548;22.968;2023-08-01T13:08:50;93164.03;;;28.62;34.16
10518;BME280;5307;42.548;22.968;2023-08-01T13:11:16;93156.59;;;28.84;36.71
10518;BME280;5307;42.548;22.968;2023-08-01T13:13:43;93162.72;;;28.90;34.43
10518;BME280;5307;42.548;22.968;2023-08-01T13:16:11;93151.19;;;28.42;34.34
10518;BME280;5307;42.548;22.968;2023-08-01T13:18:38;93167.06;;;28.74;35.41
10518;BME280;5307;42.548;22.968;2023-08-01T13:21:09;93144.09;;;28.94;34.39
10518;BME280;5307;42.548;22.968;2023-08-01T13:23:37;93151.09;;;28.76;34.57
10518;BME280;5307;42.548;22.968;2023-08-01T13:26:04;93148.13;;;28.74;35.30
10518;BME280;5307;42.548;22.968;2023-08-01T13:28:31;93150.06;;;28.72;34.77